Time;durP1;ratioP1;P1;durP2;ratioP2;P2;SDS_P1;SDS_P2;PMS_P1;PMS_P2;Temp;Humidity;BMP_temperature;BMP_pressure;BME280_temperature;BME280_humidity;BME280_pressure;Samples;Min_cycle;Max_cycle;Signal;HPM_P1;HPM_P2
2021/05/07 00:00:05;;;;;;;2.90;1.75;;;3.10;99.90;;;;;;5058220;28;20489;-75
2021/05/07 00:02:31;;;;;;;8.07;2.55;;;3.00;99.90;;;;;;5075937;28;20025;-75
2021/05/07 00:04:56;;;;;;;6.50;2.70;;;3.00;99.90;;;;;;5076519;28;20025;-75
2021/05/07 00:07:22;;;;;;;5.70;2.55;;;3.00;99.90;;;;;;5076139;28;20050;-75
2021/05/07 00:09:47;;;;;;;6.90;2.92;;;3.00;99.90;;;;;;5076080;28;20078;-75
2021/05/07 00:12:14;;;;;;;5.20;2.42;;;3.00;99.90;;;;;;5076100;28;20124;-76
2021/05/07 00:14:39;;;;;;;6.30;1.88;;;3.00;99.90;;;;;;5076125;28;20055;-76
2021/05/07 00:17:05;;;;;;;11.45;3.03;;;2.90;99.90;;;;;;5058206;28;20029;-75
2021/05/07 00:19:30;;;;;;;2.53;1.63;;;2.90;99.90;;;;;;5075593;28;20478;-75
2021/05/07 00:21:56;;;;;;;8.55;2.45;;;2.90;99.90;;;;;;5058013;28;20063;-75
2021/05/07 00:24:21;;;;;;;2.90;1.45;;;2.90;99.90;;;;;;5076376;28;20381;-75
2021/05/07 00:26:47;;;;;;;4.43;2.03;;;2.90;99.90;;;;;;5076176;28;20025;-76
2021/05/07 00:29:12;;;;;;;7.88;2.17;;;2.90;99.90;;;;;;5082690;28;20026;-75
2021/05/07 00:31:38;;;;;;;3.75;1.75;;;2.80;99.90;;;;;;5077831;28;20058;-75
2021/05/07 00:34:06;;;;;;;3.15;1.35;;;2.80;99.90;;;;;;5109225;22;20048;-76
2021/05/07 00:36:32;;;;;;;6.32;2.20;;;2.80;99.90;;;;;;5109216;22;20449;-76
2021/05/07 00:38:58;;;;;;;3.20;1.50;;;2.80;99.90;;;;;;5095841;28;20066;-76
2021/05/07 00:41:23;;;;;;;3.55;1.55;;;2.80;99.90;;;;;;5095652;28;20020;-75
2021/05/07 00:43:49;;;;;;;2.83;1.55;;;2.80;99.90;;;;;;5098912;28;20020;-75
2021/05/07 00:46:14;;;;;;;4.07;1.70;;;2.70;99.90;;;;;;5095304;28;20055;-75
2021/05/07 00:48:41;;;;;;;5.78;1.67;;;2.70;99.90;;;;;;5095308;28;20103;-75
2021/05/07 00:51:09;;;;;;;4.13;1.80;;;2.70;99.90;;;;;;5077029;28;20065;-75
2021/05/07 00:53:35;;;;;;;3.47;1.92;;;2.60;99.90;;;;;;5095187;28;20431;-75
2021/05/07 00:56:00;;;;;;;4.85;2.25;;;2.70;99.90;;;;;;5095401;28;20397;-75
2021/05/07 00:58:26;;;;;;;3.22;1.90;;;2.60;99.90;;;;;;5095217;28;20031;-75
2021/05/07 01:00:53;;;;;;;6.38;1.55;;;2.60;99.90;;;;;;5076827;28;20027;-75
2021/05/07 01:03:19;;;;;;;4.03;2.38;;;2.60;99.90;;;;;;5094964;28;20024;-75
2021/05/07 01:05:45;;;;;;;3.88;1.60;;;2.60;99.90;;;;;;5077186;28;20081;-75
2021/05/07 01:08:10;;;;;;;4.18;2.33;;;2.60;99.90;;;;;;5076687;28;20075;-76
2021/05/07 01:10:36;;;;;;;5.28;2.10;;;2.60;99.90;;;;;;5094346;28;20423;-76
2021/05/07 01:13:02;;;;;;;3.75;1.80;;;2.60;99.90;;;;;;5076742;28;20051;-76
2021/05/07 01:15:27;;;;;;;3.38;1.55;;;2.50;99.90;;;;;;5076769;28;20115;-76
2021/05/07 01:17:58;;;;;;;4.75;2.20;;;2.50;99.90;;;;;;5076742;28;20032;-76
2021/05/07 01:20:28;;;;;;;2.83;1.70;;;2.50;99.90;;;;;;5095449;28;20083;-75
2021/05/07 01:22:59;;;;;;;6.88;2.08;;;2.60;99.90;;;;;;5095264;28;20024;-76
2021/05/07 01:25:27;;;;;;;3.00;1.30;;;2.60;99.90;;;;;;5077442;28;20032;-75
2021/05/07 01:28:00;;;;;;;4.78;1.42;;;2.60;99.90;;;;;;5095130;28;20411;-75
2021/05/07 01:30:32;;;;;;;4.75;2.70;;;2.60;99.90;;;;;;5095199;28;20024;-75
2021/05/07 01:32:58;;;;;;;4.97;1.60;;;2.50;99.90;;;;;;5107828;22;20047;-74
2021/05/07 01:35:26;;;;;;;4.15;1.70;;;2.50;99.90;;;;;;5095406;28;20020;-74
2021/05/07 01:37:54;;;;;;;4.03;1.48;;;2.50;99.90;;;;;;5094721;28;20032;-76
2021/05/07 01:40:34;;;;;;;4.55;1.58;;;2.60;99.90;;;;;;5094562;28;20103;-75
2021/05/07 01:43:00;;;;;;;4.88;2.03;;;2.50;99.90;;;;;;5076538;28;20107;-75
2021/05/07 01:45:28;;;;;;;5.03;1.92;;;2.50;99.90;;;;;;5096054;28;20024;-74
2021/05/07 01:47:55;;;;;;;4.18;1.55;;;2.60;99.90;;;;;;5094500;28;20060;-78
2021/05/07 01:50:25;;;;;;;6.22;1.75;;;2.70;99.90;;;;;;5094473;28;20129;-74
2021/05/07 01:52:52;;;;;;;9.32;2.45;;;2.70;99.90;;;;;;5094466;28;20028;-75
2021/05/07 01:55:22;;;;;;;4.22;2.35;;;2.80;99.90;;;;;;5095289;28;20028;-75
2021/05/07 01:57:47;;;;;;;6.80;2.58;;;2.90;99.90;;;;;;5094207;28;20558;-76
2021/05/07 02:00:16;;;;;;;8.90;2.38;;;3.00;99.90;;;;;;5094581;28;20057;-75
2021/05/07 02:02:43;;;;;;;7.57;2.10;;;3.00;99.90;;;;;;5092880;22;20052;-75
2021/05/07 02:05:10;;;;;;;3.25;1.83;;;3.10;99.90;;;;;;5105056;22;20076;-75
2021/05/07 02:07:35;;;;;;;4.07;2.20;;;3.10;99.90;;;;;;5076175;28;20365;-75
2021/05/07 02:10:04;;;;;;;4.82;2.00;;;3.10;99.90;;;;;;5094384;28;20077;-74
2021/05/07 02:12:30;;;;;;;5.75;1.58;;;3.20;99.90;;;;;;5094684;28;20020;-75
2021/05/07 02:14:55;;;;;;;4.55;1.65;;;3.20;99.90;;;;;;5093936;28;20030;-75
2021/05/07 02:17:21;;;;;;;6.13;2.50;;;3.30;99.90;;;;;;5076035;28;20028;-75
2021/05/07 02:19:46;;;;;;;3.10;1.50;;;3.40;99.90;;;;;;5094440;28;20020;-76
2021/05/07 02:22:12;;;;;;;6.95;2.63;;;3.40;99.90;;;;;;5075589;28;20016;-75
2021/05/07 02:24:38;;;;;;;6.63;2.00;;;3.50;99.90;;;;;;5094713;28;20388;-76
2021/05/07 02:27:06;;;;;;;5.32;2.67;;;3.50;99.90;;;;;;5094183;28;20008;-76
2021/05/07 02:29:32;;;;;;;3.65;1.88;;;3.60;99.90;;;;;;5094287;28;20103;-77
2021/05/07 02:31:57;;;;;;;4.72;1.92;;;3.60;99.90;;;;;;5093631;28;20189;-77
2021/05/07 02:34:23;;;;;;;4.05;1.80;;;3.70;99.90;;;;;;5093843;28;20027;-77
2021/05/07 02:36:48;;;;;;;6.97;2.63;;;3.70;99.90;;;;;;5093656;28;20035;-77
2021/05/07 02:39:16;;;;;;;5.72;2.20;;;3.70;99.90;;;;;;5093906;28;20048;-76
2021/05/07 02:41:43;;;;;;;3.35;1.85;;;3.80;99.90;;;;;;5093452;28;20020;-77
2021/05/07 02:44:08;;;;;;;5.93;1.98;;;3.80;99.90;;;;;;5094197;28;20070;-76
2021/05/07 02:46:35;;;;;;;2.85;1.52;;;3.80;99.90;;;;;;5093304;28;20032;-76
2021/05/07 02:49:06;;;;;;;4.88;1.58;;;3.90;99.90;;;;;;5075377;28;20081;-77
2021/05/07 02:51:33;;;;;;;7.25;2.22;;;3.90;99.90;;;;;;5093307;28;20020;-77
2021/05/07 02:54:00;;;;;;;4.18;2.00;;;3.90;99.90;;;;;;5093327;28;20047;-76
2021/05/07 02:56:25;;;;;;;4.63;1.83;;;3.90;99.90;;;;;;5075361;28;20484;-76
2021/05/07 02:58:51;;;;;;;4.97;1.58;;;4.00;99.90;;;;;;5093210;28;20020;-75
2021/05/07 03:01:17;;;;;;;2.40;1.10;;;4.00;99.90;;;;;;5075001;28;20016;-75
2021/05/07 03:03:43;;;;;;;5.50;1.23;;;4.00;99.90;;;;;;5074975;28;20026;-76
2021/05/07 03:06:08;;;;;;;4.40;0.77;;;4.00;99.90;;;;;;5107266;22;20028;-76
2021/05/07 03:08:34;;;;;;;1.77;0.70;;;4.00;99.90;;;;;;5072703;28;20039;-75
2021/05/07 03:11:00;;;;;;;0.82;0.10;;;4.10;99.90;;;;;;5079833;22;20484;-75
2021/05/07 03:13:25;;;;;;;2.85;0.10;;;4.20;99.90;;;;;;5092326;28;20053;-78
2021/05/07 03:15:51;;;;;;;0.90;0.00;;;4.20;99.90;;;;;;5105321;28;20027;-77
2021/05/07 03:18:20;;;;;;;1.40;0.30;;;4.20;99.90;;;;;;5096586;28;20537;-76
2021/05/07 03:20:47;;;;;;;1.45;0.00;;;4.20;99.90;;;;;;5078609;28;20043;-76
2021/05/07 03:23:14;;;;;;;1.90;0.40;;;4.20;99.90;;;;;;5101700;28;20076;-76
2021/05/07 03:25:40;;;;;;;0.63;0.08;;;4.20;99.90;;;;;;5096515;28;20032;-76
2021/05/07 03:28:06;;;;;;;1.83;0.25;;;4.20;99.90;;;;;;5077945;28;20048;-76
2021/05/07 03:30:33;;;;;;;0.55;0.10;;;4.20;99.90;;;;;;5078725;28;20447;-76
2021/05/07 03:32:59;;;;;;;0.30;0.10;;;4.20;99.90;;;;;;5081300;28;20039;-77
2021/05/07 03:35:25;;;;;;;1.77;0.30;;;4.10;99.90;;;;;;5078398;28;20016;-76
2021/05/07 03:37:51;;;;;;;0.60;0.00;;;4.10;99.90;;;;;;5077562;28;20380;-76
2021/05/07 03:40:16;;;;;;;0.40;0.00;;;4.10;99.90;;;;;;5096276;28;20034;-76
2021/05/07 03:42:44;;;;;;;1.55;0.00;;;4.10;99.90;;;;;;5078111;28;20066;-77
2021/05/07 03:45:11;;;;;;;0.38;0.10;;;4.10;99.90;;;;;;5097136;28;20043;-76
2021/05/07 03:47:36;;;;;;;0.65;0.00;;;4.00;99.90;;;;;;5095855;28;20020;-76
2021/05/07 03:50:02;;;;;;;0.20;0.17;;;4.00;99.90;;;;;;5096349;28;20070;-76
2021/05/07 03:52:28;;;;;;;0.15;0.08;;;3.90;99.90;;;;;;5065946;28;20027;-75
2021/05/07 03:54:53;;;;;;;0.68;0.00;;;3.90;99.90;;;;;;5077920;28;20040;-75
2021/05/07 03:57:19;;;;;;;1.27;0.00;;;3.90;99.90;;;;;;5078352;28;20054;-77
2021/05/07 03:59:45;;;;;;;0.00;0.00;;;3.90;99.90;;;;;;5096327;28;20485;-75
2021/05/07 04:02:10;;;;;;;0.25;0.00;;;3.80;99.90;;;;;;5095941;28;20016;-77
2021/05/07 04:04:38;;;;;;;0.15;0.00;;;3.80;99.90;;;;;;5077941;28;20032;-75
2021/05/07 04:07:03;;;;;;;0.68;0.08;;;3.70;99.90;;;;;;5078173;28;20051;-75
2021/05/07 04:09:35;;;;;;;0.10;0.00;;;3.70;99.90;;;;;;5096062;28;20036;-75
2021/05/07 04:14:50;;;;;;;0.63;0.00;;;3.60;99.90;;;;;;5058473;28;20031;-76
2021/05/07 04:17:15;;;;;;;0.00;0.00;;;3.50;99.90;;;;;;5097059;28;20024;-77
2021/05/07 04:19:41;;;;;;;1.25;0.00;;;3.40;99.90;;;;;;5096414;28;20024;-75
2021/05/07 04:22:06;;;;;;;3.90;0.10;;;3.40;99.90;;;;;;5096760;28;20595;-75
2021/05/07 04:24:32;;;;;;;0.28;0.00;;;3.40;99.90;;;;;;5097096;28;20066;-76
2021/05/07 04:26:57;;;;;;;0.50;0.13;;;3.40;99.90;;;;;;5095535;28;20025;-75
2021/05/07 04:29:25;;;;;;;4.97;0.60;;;3.40;99.90;;;;;;5078321;28;20024;-77
2021/05/07 04:31:52;;;;;;;1.85;0.10;;;3.30;99.90;;;;;;5109235;22;20051;-75
2021/05/07 04:34:17;;;;;;;2.60;0.00;;;3.30;99.90;;;;;;5071039;23;20041;-75
2021/05/07 04:36:43;;;;;;;2.83;0.10;;;3.30;99.90;;;;;;5067992;22;20497;-75
2021/05/07 04:39:08;;;;;;;0.32;0.00;;;3.30;99.90;;;;;;5054404;28;20025;-75
2021/05/07 04:41:35;;;;;;;0.13;0.10;;;3.30;99.90;;;;;;5056212;28;20131;-75
2021/05/07 04:44:00;;;;;;;0.93;0.10;;;3.40;99.90;;;;;;5056003;28;20044;-78
2021/05/07 04:46:27;;;;;;;0.75;0.20;;;3.40;99.90;;;;;;5056146;28;20052;-75
2021/05/07 04:48:52;;;;;;;0.30;0.20;;;3.40;99.90;;;;;;5056186;28;20021;-75
2021/05/07 04:51:18;;;;;;;1.15;0.10;;;3.50;99.90;;;;;;5055411;28;20032;-75
2021/05/07 04:53:44;;;;;;;0.50;0.10;;;3.50;99.90;;;;;;5055186;28;20032;-76
2021/05/07 04:56:09;;;;;;;1.35;0.22;;;3.60;99.90;;;;;;5054161;28;20482;-75
2021/05/07 04:58:35;;;;;;;1.38;0.57;;;3.60;99.90;;;;;;5053930;28;20024;-75
2021/05/07 05:01:00;;;;;;;2.20;0.20;;;3.70;99.90;;;;;;5055149;28;20036;-77
2021/05/07 05:03:26;;;;;;;1.60;0.57;;;3.80;99.90;;;;;;5053939;28;20108;-75
2021/05/07 05:05:51;;;;;;;0.30;0.20;;;3.80;99.90;;;;;;5053732;28;20025;-77
2021/05/07 05:08:21;;;;;;;0.90;0.35;;;3.80;99.90;;;;;;5053627;28;20047;-76
2021/05/07 05:10:47;;;;;;;0.65;0.22;;;3.80;99.90;;;;;;5053315;28;20017;-75
2021/05/07 05:13:13;;;;;;;0.30;0.28;;;3.90;99.90;;;;;;5079435;23;20055;-76
2021/05/07 05:15:39;;;;;;;1.25;0.10;;;3.90;99.90;;;;;;5075277;28;20028;-75
2021/05/07 05:18:04;;;;;;;0.30;0.20;;;3.90;99.90;;;;;;5074989;28;20465;-75
2021/05/07 05:20:30;;;;;;;0.80;0.22;;;4.00;99.90;;;;;;5056484;28;20074;-74
2021/05/07 05:22:55;;;;;;;0.43;0.10;;;4.00;99.90;;;;;;5067809;28;20042;-75
2021/05/07 05:25:21;;;;;;;1.05;0.15;;;4.00;99.90;;;;;;5075460;28;20020;-75
2021/05/07 05:27:47;;;;;;;2.35;0.30;;;4.10;99.90;;;;;;5075170;28;20469;-76
2021/05/07 05:30:12;;;;;;;1.30;0.30;;;4.10;99.90;;;;;;5074649;28;20020;-75
2021/05/07 05:32:38;;;;;;;2.17;0.43;;;4.20;99.90;;;;;;5074010;28;20119;-76
2021/05/07 05:35:08;;;;;;;4.18;0.70;;;4.30;99.90;;;;;;5072840;28;20032;-76
2021/05/07 05:37:33;;;;;;;1.10;0.40;;;4.20;99.90;;;;;;5074176;28;20487;-74
2021/05/07 05:39:59;;;;;;;0.90;0.35;;;4.30;99.90;;;;;;5072873;28;20032;-74
2021/05/07 05:42:24;;;;;;;2.88;0.47;;;4.40;99.90;;;;;;5072565;28;20469;-75
2021/05/07 05:44:50;;;;;;;0.52;0.30;;;4.50;99.90;;;;;;5073452;28;20481;-77
2021/05/07 05:47:16;;;;;;;0.77;0.32;;;4.60;99.90;;;;;;5074129;28;20016;-74
2021/05/07 05:49:41;;;;;;;1.20;0.45;;;4.60;99.90;;;;;;5074452;28;20020;-74
2021/05/07 05:52:07;;;;;;;0.50;0.20;;;4.70;99.90;;;;;;5072848;28;20021;-75
2021/05/07 05:54:32;;;;;;;1.00;0.40;;;4.80;99.90;;;;;;5075736;28;20043;-74
2021/05/07 05:56:58;;;;;;;0.63;0.32;;;4.90;99.90;;;;;;5073210;28;20024;-80
2021/05/07 05:59:23;;;;;;;0.80;0.20;;;7.40;99.90;;;;;;5075086;28;20028;-74
2021/05/07 06:01:49;;;;;;;2.50;0.38;;;5.00;99.90;;;;;;5074156;28;20028;-77
2021/05/07 06:04:14;;;;;;;1.20;0.20;;;5.00;99.90;;;;;;5072560;28;20024;-74
2021/05/07 06:06:40;;;;;;;0.65;0.17;;;5.10;99.90;;;;;;5074258;28;20031;-75
2021/05/07 06:09:06;;;;;;;4.75;0.45;;;5.20;99.90;;;;;;5073147;28;20025;-74
2021/05/07 06:11:32;;;;;;;0.43;0.15;;;5.30;99.90;;;;;;5089008;22;20037;-74
2021/05/07 06:13:57;;;;;;;3.25;0.15;;;5.40;99.90;;;;;;5093914;28;20111;-75
2021/05/07 06:16:23;;;;;;;1.58;0.10;;;5.50;99.90;;;;;;5094116;28;20016;-75
2021/05/07 06:18:48;;;;;;;1.48;0.10;;;5.40;99.90;;;;;;5075462;28;20024;-78
2021/05/07 06:21:14;;;;;;;1.02;0.10;;;5.50;99.90;;;;;;5076074;28;20052;-76
2021/05/07 06:23:40;;;;;;;0.20;0.00;;;5.50;99.90;;;;;;5093695;28;20017;-75
2021/05/07 06:26:05;;;;;;;1.15;0.20;;;5.70;99.90;;;;;;5094497;28;20036;-75
2021/05/07 06:28:34;;;;;;;2.20;0.15;;;5.70;99.90;;;;;;5096930;22;20040;-78
2021/05/07 06:31:00;;;;;;;;;;;5.70;99.90;;;;;;5054847;28;20013;-74
2021/05/07 06:33:26;;;;;;;1.35;0.10;;;5.80;99.90;;;;;;5071345;28;20283;-74
2021/05/07 06:35:53;;;;;;;1.65;0.43;;;5.90;99.90;;;;;;5055953;28;20025;-75
2021/05/07 06:38:18;;;;;;;2.00;0.10;;;6.00;99.90;;;;;;5073519;28;20058;-74
2021/05/07 06:40:44;;;;;;;0.80;0.05;;;6.10;99.90;;;;;;5073988;28;20025;-75
2021/05/07 06:43:10;;;;;;;2.78;0.30;;;6.10;99.90;;;;;;5073856;28;20077;-74
2021/05/07 06:45:36;;;;;;;1.75;0.40;;;6.20;99.90;;;;;;5056316;28;20452;-74
2021/05/07 06:48:02;;;;;;;1.20;0.45;;;6.30;99.90;;;;;;5074136;28;20056;-76
2021/05/07 06:50:27;;;;;;;4.28;0.43;;;6.30;99.90;;;;;;5059157;28;20028;-74
2021/05/07 06:52:54;;;;;;;2.50;0.20;;;6.40;99.90;;;;;;5059513;28;20431;-78
2021/05/07 06:55:19;;;;;;;1.40;0.57;;;6.50;99.90;;;;;;5059751;28;20391;-74
2021/05/07 06:57:46;;;;;;;1.45;0.50;;;6.70;99.90;;;;;;5077617;28;20111;-74
2021/05/07 07:00:12;;;;;;;0.70;0.35;;;6.80;99.90;;;;;;5077615;28;20023;-74
2021/05/07 07:02:38;;;;;;;1.83;0.25;;;6.80;99.90;;;;;;5072181;22;20087;-76
2021/05/07 07:05:04;;;;;;;1.23;0.32;;;6.80;99.90;;;;;;5058525;28;20025;-74
2021/05/07 07:07:30;;;;;;;1.05;0.60;;;6.80;99.90;;;;;;5057347;28;20032;-74
2021/05/07 07:09:56;;;;;;;0.85;0.40;;;6.80;99.90;;;;;;5057189;28;20017;-74
2021/05/07 07:12:21;;;;;;;2.95;0.50;;;6.70;99.90;;;;;;5057378;28;20025;-74
2021/05/07 07:14:47;;;;;;;0.85;0.52;;;6.80;99.90;;;;;;5039634;28;20381;-74
2021/05/07 07:17:12;;;;;;;2.67;0.75;;;6.90;99.90;;;;;;5055384;22;20482;-75
2021/05/07 07:19:38;;;;;;;1.77;0.88;;;6.90;99.90;;;;;;5097148;28;20416;-75
2021/05/07 07:22:07;;;;;;;3.08;0.60;;;7.10;99.90;;;;;;5097482;28;20031;-75
2021/05/07 07:24:33;;;;;;;3.47;0.80;;;7.10;99.90;;;;;;5080038;22;20040;-74
2021/05/07 07:26:59;;;;;;;2.22;0.77;;;7.20;99.90;;;;;;5076976;28;20388;-75
2021/05/07 07:29:25;;;;;;;1.88;0.70;;;7.40;99.90;;;;;;5059065;28;20082;-75
2021/05/07 07:31:52;;;;;;;4.57;0.75;;;7.80;99.90;;;;;;5076998;28;20039;-76
2021/05/07 07:34:18;;;;;;;2.63;0.90;;;7.60;99.90;;;;;;5059450;28;20525;-75
2021/05/07 07:36:45;;;;;;;2.03;0.47;;;7.60;99.90;;;;;;5058816;28;20070;-76
2021/05/07 07:39:12;;;;;;;2.22;0.75;;;7.80;99.90;;;;;;5058755;28;20020;-75
2021/05/07 07:44:07;;;;;;;3.85;1.10;;;8.00;99.90;;;;;;5095218;28;20044;-74
2021/05/07 07:46:32;;;;;;;1.65;0.70;;;7.90;99.90;;;;;;5096840;28;20024;-75
2021/05/07 07:48:58;;;;;;;3.70;0.55;;;8.10;99.90;;;;;;5078819;28;20043;-74
2021/05/07 07:51:29;;;;;;;3.90;0.77;;;8.20;99.90;;;;;;5078293;28;20032;-75
2021/05/07 07:53:55;;;;;;;1.25;0.70;;;8.40;99.90;;;;;;5096634;28;20031;-75
2021/05/07 07:56:21;;;;;;;3.30;0.75;;;8.50;99.90;;;;;;5133154;22;20107;-75
2021/05/07 07:58:48;;;;;;;4.95;1.08;;;8.60;99.90;;;;;;5078117;28;20031;-74
2021/05/07 08:01:14;;;;;;;2.30;0.70;;;8.80;99.90;;;;;;5077024;28;20024;-74
2021/05/07 08:03:39;;;;;;;3.42;0.73;;;9.00;99.90;;;;;;5078126;28;20066;-74
2021/05/07 08:06:05;;;;;;;2.30;0.25;;;9.10;99.90;;;;;;5078045;28;20028;-75
2021/05/07 08:08:31;;;;;;;1.13;0.30;;;9.40;99.90;;;;;;5096721;28;20028;-75
2021/05/07 08:10:56;;;;;;;2.20;0.35;;;9.60;99.90;;;;;;5077695;28;20028;-74
2021/05/07 08:13:22;;;;;;;2.17;0.55;;;9.90;99.90;;;;;;5077923;28;20024;-74
2021/05/07 08:15:47;;;;;;;2.08;1.05;;;10.50;99.80;;;;;;5077946;28;20047;-74
2021/05/07 08:18:14;;;;;;;4.13;0.98;;;10.20;99.00;;;;;;5077783;28;20477;-74
2021/05/07 08:20:40;;;;;;;7.13;1.23;;;10.10;99.90;;;;;;5096027;28;20012;-74
2021/05/07 08:23:05;;;;;;;1.45;0.68;;;10.00;99.90;;;;;;5096329;28;20077;-75
2021/05/07 08:25:31;;;;;;;3.08;0.70;;;9.80;99.90;;;;;;5096266;28;20020;-74
2021/05/07 08:27:56;;;;;;;1.77;0.30;;;9.40;99.90;;;;;;5096169;28;20027;-74
2021/05/07 08:30:22;;;;;;;2.50;0.60;;;9.20;99.90;;;;;;5077911;28;20385;-75
2021/05/07 08:32:48;;;;;;;3.13;0.50;;;9.10;99.90;;;;;;5095778;28;20391;-76
2021/05/07 08:35:13;;;;;;;3.85;1.17;;;9.10;99.90;;;;;;5095946;28;20035;-76
2021/05/07 08:37:44;;;;;;;4.15;0.60;;;9.30;99.90;;;;;;5096879;28;20031;-76
2021/05/07 08:40:13;;;;;;;4.05;0.80;;;9.50;99.90;;;;;;5078008;28;20028;-76
2021/05/07 08:42:39;;;;;;;1.55;0.30;;;9.70;99.90;;;;;;5095647;28;20466;-76
2021/05/07 08:45:06;;;;;;;3.45;0.70;;;9.90;99.90;;;;;;5096282;28;20024;-75
2021/05/07 08:47:34;;;;;;;1.70;0.65;;;10.10;99.90;;;;;;5095080;28;20024;-76
2021/05/07 08:50:01;;;;;;;2.53;0.75;;;10.40;99.90;;;;;;5076975;28;20028;-76
2021/05/07 08:52:27;;;;;;;1.02;0.43;;;10.70;99.90;;;;;;5096358;28;20023;-75
2021/05/07 08:54:53;;;;;;;4.20;0.73;;;10.80;99.50;;;;;;5095751;28;20103;-75
2021/05/07 08:57:19;;;;;;;3.40;0.70;;;10.90;99.90;;;;;;5096428;28;20051;-76
2021/05/07 08:59:44;;;;;;;2.10;0.57;;;11.10;99.90;;;;;;5095951;28;20518;-75
2021/05/07 09:02:10;;;;;;;1.02;0.20;;;11.30;99.70;;;;;;5096240;28;20019;-79
2021/05/07 09:04:50;;;;;;;2.17;0.10;;;11.50;93.60;;;;;;5077557;28;20012;-78
2021/05/07 09:07:15;;;;;;;1.58;0.22;;;11.70;92.00;;;;;;5078065;28;20099;-76
2021/05/07 09:09:54;;;;;;;2.85;0.40;;;12.00;85.80;;;;;;5077505;28;20020;-76
2021/05/07 09:12:36;;;;;;;2.50;0.15;;;12.00;87.40;;;;;;5094314;28;20054;-76
2021/05/07 09:15:04;;;;;;;4.75;0.40;;;11.90;80.30;;;;;;5095277;28;20500;-76
2021/05/07 09:17:30;;;;;;;2.63;0.30;;;11.50;80.80;;;;;;5077162;28;20024;-76
2021/05/07 09:20:07;;;;;;;1.85;0.32;;;11.10;86.40;;;;;;5077073;28;20019;-74
2021/05/07 09:22:33;;;;;;;1.88;0.20;;;10.90;91.60;;;;;;5119411;23;20040;-74
2021/05/07 09:25:08;;;;;;;2.63;0.20;;;10.80;91.20;;;;;;5076598;28;20479;-74
2021/05/07 09:27:34;;;;;;;3.78;0.10;;;11.10;91.00;;;;;;5076326;28;20031;-75
2021/05/07 09:30:00;;;;;;;1.00;0.40;;;11.40;90.60;;;;;;5095381;28;20468;-77
2021/05/07 09:32:32;;;;;;;4.07;0.50;;;11.60;85.60;;;;;;5094556;28;20049;-78
2021/05/07 09:35:08;;;;;;;4.53;0.60;;;11.60;85.30;;;;;;5076402;28;20030;-77
2021/05/07 09:37:35;;;;;;;2.65;0.68;;;11.30;80.10;;;;;;5094882;28;20020;-77
2021/05/07 09:40:15;;;;;;;6.00;0.52;;;10.90;88.90;;;;;;5093456;28;20024;-77
2021/05/07 09:42:41;;;;;;;1.25;0.57;;;10.80;91.60;;;;;;5076885;28;20019;-74
2021/05/07 09:45:34;;;;;;;2.35;0.70;;;10.80;92.10;;;;;;5076082;28;20055;-74
2021/05/07 09:48:00;;;;;;;2.97;0.75;;;10.70;90.70;;;;;;5092781;28;20072;-74
2021/05/07 09:50:38;;;;;;;1.80;0.20;;;10.70;88.10;;;;;;5095359;28;20384;-74
2021/05/07 09:53:14;;;;;;;2.13;0.20;;;10.70;87.90;;;;;;5093335;28;20028;-74
2021/05/07 09:55:40;;;;;;;3.10;0.10;;;10.70;86.40;;;;;;5094487;28;20115;-74
2021/05/07 09:58:06;;;;;;;2.58;0.40;;;10.90;83.00;;;;;;5093354;28;20024;-74
2021/05/07 10:00:32;;;;;;;1.20;0.30;;;11.30;88.80;;;;;;5093031;28;20028;-76
2021/05/07 10:02:59;;;;;;;2.38;0.30;;;11.80;86.20;;;;;;5100770;23;20044;-77
2021/05/07 10:05:26;;;;;;;0.52;0.10;;;12.50;83.60;;;;;;5104550;28;20039;-78
2021/05/07 10:07:53;;;;;;;1.23;0.10;;;12.40;74.70;;;;;;5144976;22;20040;-77
2021/05/07 10:10:18;;;;;;;2.00;0.20;;;12.70;77.30;;;;;;5095136;28;20028;-75
2021/05/07 10:12:46;;;;;;;1.65;0.00;;;12.60;77.00;;;;;;5107248;22;20053;-74
2021/05/07 10:15:12;;;;;;;2.17;0.65;;;12.30;77.30;;;;;;5077123;28;20038;-75
2021/05/07 10:17:51;;;;;;;0.80;0.10;;;12.10;72.20;;;;;;5094576;28;20427;-75
2021/05/07 10:20:24;;;;;;;;;;;12.30;75.60;;;;;;5103239;22;20101;-75
2021/05/07 10:22:50;;;;;;;1.95;0.63;;;12.60;75.90;;;;;;5100258;22;19946;-76
2021/05/07 10:25:24;;;;;;;1.63;0.05;;;12.90;75.00;;;;;;5080028;28;20480;-77
2021/05/07 10:27:55;;;;;;;1.90;0.20;;;13.20;73.90;;;;;;5080644;28;20476;-76
2021/05/07 10:30:22;;;;;;;4.50;0.32;;;13.30;69.60;;;;;;5094036;23;20044;-76
2021/05/07 10:33:02;;;;;;;2.03;0.08;;;13.20;72.00;;;;;;5077639;28;20029;-76
2021/05/07 10:35:38;;;;;;;0.57;0.00;;;13.20;66.30;;;;;;5076809;28;20432;-79
2021/05/07 10:38:18;;;;;;;2.55;0.15;;;13.00;69.40;;;;;;5078013;28;20016;-78
2021/05/07 10:40:45;;;;;;;1.65;0.20;;;13.10;71.80;;;;;;5079235;28;20535;-77
2021/05/07 10:43:11;;;;;;;3.53;0.15;;;13.30;70.90;;;;;;5078221;28;20218;-76
2021/05/07 10:45:45;;;;;;;1.60;0.10;;;13.40;64.50;;;;;;5101115;22;20047;-80
2021/05/07 10:48:12;;;;;;;0.70;0.30;;;13.50;61.60;;;;;;5100584;23;20036;-77
2021/05/07 10:50:41;;;;;;;0.93;0.17;;;13.50;62.50;;;;;;5092295;22;20046;-76
2021/05/07 10:53:09;;;;;;;0.50;0.10;;;13.70;64.70;;;;;;5058027;28;20033;-76
2021/05/07 10:55:35;;;;;;;2.97;0.20;;;13.50;64.70;;;;;;5040646;28;20039;-76
2021/05/07 10:58:02;;;;;;;0.65;0.22;;;13.30;68.60;;;;;;5056685;28;20013;-78
2021/05/07 11:00:35;;;;;;;1.00;0.10;;;13.10;64.50;;;;;;5057426;28;20039;-79
2021/05/07 11:03:03;;;;;;;0.70;0.10;;;13.00;60.20;;;;;;5057908;28;20045;-77
2021/05/07 11:05:36;;;;;;;0.43;0.00;;;13.00;62.90;;;;;;5064785;22;20439;-76
2021/05/07 11:08:03;;;;;;;0.73;0.17;;;14.30;67.30;;;;;;5059880;28;20358;-77
2021/05/07 11:10:29;;;;;;;1.75;0.20;;;13.40;59.10;;;;;;5059864;28;20059;-76
2021/05/07 11:12:55;;;;;;;0.82;0.05;;;13.70;64.10;;;;;;5077361;28;20111;-78
2021/05/07 11:15:21;;;;;;;0.80;0.30;;;14.10;67.10;;;;;;5077545;28;20029;-80
2021/05/07 11:18:01;;;;;;;1.02;0.40;;;14.40;57.70;;;;;;5060474;28;20044;-78
2021/05/07 11:20:35;;;;;;;1.52;0.10;;;14.30;58.50;;;;;;5078547;28;20051;-76
2021/05/07 11:23:04;;;;;;;0.90;0.10;;;14.10;56.50;;;;;;5078886;28;20021;-75
2021/05/07 11:25:31;;;;;;;0.90;0.17;;;13.80;57.20;;;;;;5078231;28;20020;-75
2021/05/07 11:27:59;;;;;;;1.50;0.40;;;13.60;60.00;;;;;;5058381;28;20025;-77
2021/05/07 11:30:24;;;;;;;1.83;0.10;;;13.50;61.70;;;;;;5076981;28;20040;-75
2021/05/07 11:32:50;;;;;;;0.32;0.03;;;13.70;62.00;;;;;;5079197;28;20259;-79
2021/05/07 11:35:17;;;;;;;1.17;0.10;;;13.70;60.70;;;;;;5060792;28;20024;-79
2021/05/07 11:37:45;;;;;;;2.95;0.13;;;14.00;54.70;;;;;;5078012;28;20093;-76
2021/05/07 11:40:15;;;;;;;1.35;0.20;;;14.40;56.10;;;;;;5059609;28;20457;-77
2021/05/07 11:42:41;;;;;;;0.52;0.40;;;14.70;53.00;;;;;;5057925;28;20063;-77
2021/05/07 11:45:27;;;;;;;0.95;0.08;;;15.00;56.10;;;;;;5076251;28;20017;-79
2021/05/07 11:47:53;;;;;;;0.82;0.10;;;15.00;51.30;;;;;;5061271;28;20074;-77
2021/05/07 11:50:20;;;;;;;1.70;0.35;;;14.60;54.10;;;;;;5077381;28;20439;-78
2021/05/07 11:52:48;;;;;;;2.95;0.17;;;14.50;56.60;;;;;;5076972;28;20028;-77
2021/05/07 11:55:19;;;;;;;0.65;0.10;;;14.60;54.90;;;;;;5058969;28;20027;-77
2021/05/07 11:58:03;;;;;;;0.20;0.08;;;14.40;54.10;;;;;;5076514;28;20036;-76
2021/05/07 12:00:30;;;;;;;0.75;0.30;;;14.20;54.80;;;;;;5057838;28;20016;-77
2021/05/07 12:03:05;;;;;;;2.92;0.40;;;14.40;57.90;;;;;;5057487;28;20016;-76
2021/05/07 12:05:31;;;;;;;3.35;0.85;;;14.50;55.00;;;;;;5075839;28;20429;-77
2021/05/07 12:07:57;;;;;;;3.55;0.30;;;14.40;57.70;;;;;;5075569;28;20024;-74
2021/05/07 12:10:27;;;;;;;4.43;0.25;;;14.00;53.90;;;;;;5076034;28;20029;-76
2021/05/07 12:12:57;;;;;;;3.17;0.38;;;13.80;58.10;;;;;;5057295;28;20025;-77
2021/05/07 12:15:31;;;;;;;3.42;0.20;;;13.90;57.10;;;;;;5075230;28;20024;-77
2021/05/07 12:17:57;;;;;;;0.75;0.30;;;14.20;61.00;;;;;;5057342;28;20099;-77
2021/05/07 12:20:24;;;;;;;4.75;0.85;;;14.10;57.30;;;;;;5075139;28;20036;-76
2021/05/07 12:22:53;;;;;;;1.60;0.40;;;14.10;60.00;;;;;;5075888;28;20012;-78
2021/05/07 12:25:23;;;;;;;0.55;0.30;;;14.20;60.10;;;;;;5075289;28;20044;-77
2021/05/07 12:27:50;;;;;;;1.65;0.50;;;14.60;56.10;;;;;;5098784;22;20389;-78
2021/05/07 12:30:36;;;;;;;1.88;0.80;;;14.80;59.80;;;;;;5109205;22;20400;-75
2021/05/07 12:33:07;;;;;;;4.55;0.68;;;14.90;55.40;;;;;;5096171;28;20024;-76
2021/05/07 12:35:36;;;;;;;1.40;0.40;;;14.90;57.20;;;;;;5096178;28;20082;-74
2021/05/07 12:38:25;;;;;;;3.47;1.05;;;14.70;58.40;;;;;;5095789;28;20028;-76
2021/05/07 12:40:55;;;;;;;3.33;0.80;;;14.60;62.80;;;;;;5095496;28;20046;-74
2021/05/07 12:43:22;;;;;;;3.15;0.68;;;14.80;58.50;;;;;;5095848;28;20024;-75
2021/05/07 12:45:48;;;;;;;3.45;0.50;;;15.00;58.50;;;;;;5108450;22;20036;-74
2021/05/07 12:48:15;;;;;;;1.23;0.10;;;15.10;56.80;;;;;;5094839;28;20073;-76
2021/05/07 12:50:42;;;;;;;0.52;0.20;;;15.10;58.10;;;;;;5077433;28;20132;-77
2021/05/07 12:53:18;;;;;;;1.65;0.50;;;15.20;56.10;;;;;;5095936;28;20021;-77
2021/05/07 12:55:44;;;;;;;2.10;0.30;;;15.70;56.70;;;;;;5108629;22;20553;-76
2021/05/07 12:58:10;;;;;;;1.27;0.65;;;15.90;54.20;;;;;;5077499;28;20047;-75